Time;durP1;ratioP1;P1;durP2;ratioP2;P2;SDS_P1;SDS_P2;PMS_P1;PMS_P2;Temp;Humidity;BMP_temperature;BMP_pressure;BME280_temperature;BME280_humidity;BME280_pressure;Samples;Min_cycle;Max_cycle;Signal;HPM_P1;HPM_P2
2022/05/16 00:00:27;;;;;;;6.60;2.45;;;;;;;;;;5017227;28;20202;-58
2022/05/16 00:03:06;;;;;;;4.47;2.50;;;;;;;;;;5017301;28;20223;-58
2022/05/16 00:05:33;;;;;;;6.07;2.60;;;;;;;;;;5016983;28;20683;-58
2022/05/16 00:08:01;;;;;;;6.55;2.33;;;;;;;;;;5017111;28;20209;-58
2022/05/16 00:10:28;;;;;;;5.78;2.47;;;;;;;;;;5017052;28;20249;-58
2022/05/16 00:12:55;;;;;;;5.25;2.53;;;;;;;;;;5015947;28;20221;-58
2022/05/16 00:15:24;;;;;;;5.28;2.28;;;;;;;;;;5017294;28;20232;-58
2022/05/16 00:17:51;;;;;;;6.70;2.63;;;;;;;;;;5016065;28;20229;-58
2022/05/16 00:20:18;;;;;;;7.07;2.55;;;;;;;;;;5016789;28;20601;-58
2022/05/16 00:22:45;;;;;;;4.82;2.40;;;;;;;;;;5017031;28;20228;-58
2022/05/16 00:25:15;;;;;;;6.78;2.30;;;;;;;;;;5016853;28;20236;-58
2022/05/16 00:27:43;;;;;;;7.35;2.60;;;;;;;;;;5017097;28;20217;-58
2022/05/16 00:30:13;;;;;;;4.80;2.30;;;;;;;;;;5016613;28;20527;-58
2022/05/16 00:32:40;;;;;;;6.82;2.53;;;;;;;;;;5016448;28;20271;-58
2022/05/16 00:35:09;;;;;;;6.60;2.60;;;;;;;;;;5016394;28;20236;-58
2022/05/16 00:37:36;;;;;;;3.83;2.30;;;;;;;;;;5016497;28;20287;-57
2022/05/16 00:40:05;;;;;;;4.75;2.35;;;;;;;;;;5017005;28;20206;-58
2022/05/16 00:42:32;;;;;;;6.72;2.97;;;;;;;;;;5016526;28;20201;-58
2022/05/16 00:44:59;;;;;;;7.35;3.13;;;;;;;;;;5016317;28;20213;-58
2022/05/16 00:47:26;;;;;;;7.03;3.20;;;;;;;;;;5016482;28;20586;-58
2022/05/16 00:49:53;;;;;;;7.82;2.72;;;;;;;;;;5016334;28;20216;-58
2022/05/16 00:52:24;;;;;;;8.52;3.47;;;;;;;;;;5015315;28;20228;-58
2022/05/16 00:54:54;;;;;;;11.90;3.30;;;;;;;;;;5048910;28;20201;-58
2022/05/16 00:57:28;;;;;;;6.57;3.03;;;;;;;;;;5015563;28;20241;-58
2022/05/16 01:00:07;;;;;;;8.45;2.85;;;;;;;;;;5016162;28;20593;-58
2022/05/16 01:05:22;;;;;;;6.00;3.05;;;;;;;;;;5035667;28;20219;-58
2022/05/16 01:07:50;;;;;;;9.43;3.28;;;;;;;;;;5035570;28;20368;-58
2022/05/16 01:10:20;;;;;;;10.32;3.63;;;;;;;;;;5036229;28;20278;-58
2022/05/16 01:12:49;;;;;;;8.77;3.20;;;;;;;;;;5035872;28;20203;-58
2022/05/16 01:15:36;;;;;;;11.25;3.30;;;;;;;;;;5035638;28;20201;-58
2022/05/16 01:18:08;;;;;;;15.43;3.72;;;;;;;;;;5035791;28;20259;-58
2022/05/16 01:20:57;;;;;;;11.68;3.72;;;;;;;;;;5035575;28;20552;-58
2022/05/16 01:23:26;;;;;;;8.45;2.95;;;;;;;;;;5035491;28;20261;-58
2022/05/16 01:25:53;;;;;;;6.78;3.00;;;;;;;;;;5035456;28;20215;-58
2022/05/16 01:28:23;;;;;;;8.63;3.25;;;;;;;;;;5035714;28;20250;-58
2022/05/16 01:30:52;;;;;;;10.13;3.25;;;;;;;;;;5035574;28;20197;-58
2022/05/16 01:33:23;;;;;;;8.07;3.10;;;;;;;;;;5035291;28;20201;-58
2022/05/16 01:35:49;;;;;;;8.45;3.17;;;;;;;;;;5035277;28;20247;-58
2022/05/16 01:38:18;;;;;;;6.25;2.92;;;;;;;;;;5035145;28;20278;-59
2022/05/16 01:40:46;;;;;;;9.13;2.85;;;;;;;;;;5035322;28;20300;-58
2022/05/16 01:43:15;;;;;;;8.45;3.60;;;;;;;;;;5035019;28;20283;-59
2022/05/16 01:45:43;;;;;;;8.25;3.08;;;;;;;;;;5034484;28;20200;-58
2022/05/16 01:48:13;;;;;;;8.20;2.80;;;;;;;;;;5035222;28;20637;-58
2022/05/16 01:50:41;;;;;;;8.00;2.80;;;;;;;;;;5034923;28;20201;-58
2022/05/16 01:53:08;;;;;;;6.57;2.97;;;;;;;;;;5034670;28;20243;-58
2022/05/16 01:55:36;;;;;;;6.20;2.70;;;;;;;;;;5034927;28;20523;-58
2022/05/16 01:58:04;;;;;;;5.85;2.70;;;;;;;;;;5035178;28;20221;-58
2022/05/16 02:00:32;;;;;;;7.35;3.00;;;;;;;;;;5034827;28;20263;-58
2022/05/16 02:03:00;;;;;;;6.45;2.80;;;;;;;;;;5034586;28;20231;-58
2022/05/16 02:05:28;;;;;;;6.88;3.00;;;;;;;;;;5034473;28;20208;-58
2022/05/16 02:07:55;;;;;;;6.28;2.95;;;;;;;;;;5034728;28;20212;-58
2022/05/16 02:10:23;;;;;;;8.85;3.33;;;;;;;;;;5034578;28;20205;-58
2022/05/16 02:12:52;;;;;;;7.47;2.88;;;;;;;;;;5034514;28;20212;-58
2022/05/16 02:15:22;;;;;;;8.65;2.67;;;;;;;;;;5034647;28;20324;-58
2022/05/16 02:17:49;;;;;;;6.18;2.67;;;;;;;;;;5034280;28;20224;-58
2022/05/16 02:20:17;;;;;;;6.93;2.80;;;;;;;;;;5034644;28;20266;-58
2022/05/16 02:25:32;;;;;;;8.85;2.88;;;;;;;;;;5034382;28;20204;-58
2022/05/16 02:27:59;;;;;;;6.78;2.90;;;;;;;;;;5034563;28;20235;-58
2022/05/16 02:30:26;;;;;;;8.43;3.35;;;;;;;;;;5034234;28;20706;-58
2022/05/16 02:32:53;;;;;;;6.47;2.55;;;;;;;;;;5034172;28;20591;-58
2022/05/16 02:35:20;;;;;;;8.90;3.20;;;;;;;;;;5034418;28;20283;-58
2022/05/16 02:37:48;;;;;;;10.07;3.33;;;;;;;;;;5034296;28;20232;-58
2022/05/16 02:40:16;;;;;;;7.65;3.40;;;;;;;;;;5034922;28;20205;-58
2022/05/16 02:42:43;;;;;;;8.05;3.30;;;;;;;;;;5038048;28;20212;-59
2022/05/16 02:45:10;;;;;;;10.32;3.38;;;;;;;;;;5038381;28;20200;-58
2022/05/16 02:47:38;;;;;;;13.05;3.15;;;;;;;;;;5038252;28;20209;-58
2022/05/16 02:50:05;;;;;;;11.98;3.80;;;;;;;;;;5038245;28;20204;-58
2022/05/16 02:52:32;;;;;;;15.52;4.00;;;;;;;;;;5037819;28;20237;-57
2022/05/16 02:55:00;;;;;;;6.68;3.53;;;;;;;;;;5037855;28;20644;-58
2022/05/16 02:57:28;;;;;;;10.02;3.20;;;;;;;;;;5037681;28;20224;-58
2022/05/16 02:59:56;;;;;;;6.65;2.97;;;;;;;;;;5038041;28;20196;-58
2022/05/16 03:02:25;;;;;;;9.23;3.10;;;;;;;;;;5037928;28;20212;-58
2022/05/16 03:04:52;;;;;;;7.22;3.10;;;;;;;;;;5038069;28;20200;-58
2022/05/16 03:07:19;;;;;;;12.02;3.65;;;;;;;;;;5038140;28;20208;-58
2022/05/16 03:09:49;;;;;;;10.10;2.92;;;;;;;;;;5037783;28;20200;-58
2022/05/16 03:12:16;;;;;;;6.45;3.40;;;;;;;;;;5037722;28;20215;-59
2022/05/16 03:14:43;;;;;;;8.63;3.25;;;;;;;;;;5038015;28;20211;-58
2022/05/16 03:17:10;;;;;;;7.00;3.00;;;;;;;;;;5037872;28;20232;-58
2022/05/16 03:19:37;;;;;;;8.52;3.42;;;;;;;;;;5036984;28;20595;-57
2022/05/16 03:22:05;;;;;;;6.88;2.80;;;;;;;;;;5018964;28;20205;-59
2022/05/16 03:24:33;;;;;;;11.27;3.55;;;;;;;;;;5017962;28;20202;-59
2022/05/16 03:27:00;;;;;;;7.43;3.10;;;;;;;;;;5017948;28;20229;-58
2022/05/16 03:29:27;;;;;;;11.52;3.63;;;;;;;;;;5017563;28;20221;-59
2022/05/16 03:31:54;;;;;;;7.35;3.13;;;;;;;;;;5017718;28;20220;-60
2022/05/16 03:34:22;;;;;;;7.40;3.00;;;;;;;;;;5017581;28;20767;-58
2022/05/16 03:36:49;;;;;;;8.60;3.20;;;;;;;;;;5017644;28;20221;-58
2022/05/16 03:42:07;;;;;;;9.02;3.80;;;;;;;;;;5017365;28;20209;-58
2022/05/16 03:44:34;;;;;;;10.05;3.28;;;;;;;;;;5017497;28;20205;-58
2022/05/16 03:47:01;;;;;;;6.55;3.38;;;;;;;;;;5016265;28;20651;-58
2022/05/16 03:49:30;;;;;;;7.47;3.05;;;;;;;;;;5016931;28;20260;-58
2022/05/16 03:51:59;;;;;;;8.57;3.20;;;;;;;;;;5019952;28;20237;-57
2022/05/16 03:54:26;;;;;;;5.47;2.80;;;;;;;;;;5040871;28;20275;-59
2022/05/16 03:56:53;;;;;;;4.97;2.83;;;;;;;;;;5025270;28;20683;-58
2022/05/16 03:59:20;;;;;;;5.53;3.17;;;;;;;;;;5030035;28;20220;-59
2022/05/16 04:01:49;;;;;;;6.10;2.80;;;;;;;;;;5020460;28;20213;-59
2022/05/16 04:04:16;;;;;;;9.70;3.35;;;;;;;;;;5019720;28;20218;-58
2022/05/16 04:06:45;;;;;;;13.45;3.38;;;;;;;;;;5033859;28;20225;-59
2022/05/16 04:09:12;;;;;;;6.22;2.90;;;;;;;;;;5027411;28;20228;-58
2022/05/16 04:11:39;;;;;;;11.93;3.40;;;;;;;;;;5029959;28;20794;-59
2022/05/16 04:14:07;;;;;;;6.70;2.83;;;;;;;;;;5024620;28;20233;-59
2022/05/16 04:16:34;;;;;;;6.35;2.75;;;;;;;;;;5036303;28;20220;-59
2022/05/16 04:19:01;;;;;;;8.07;2.30;;;;;;;;;;5024979;28;20559;-58
2022/05/16 04:21:28;;;;;;;7.43;2.50;;;;;;;;;;5021411;28;20221;-57
2022/05/16 04:23:55;;;;;;;6.25;2.67;;;;;;;;;;5027261;28;20236;-59
2022/05/16 04:26:22;;;;;;;6.22;2.30;;;;;;;;;;5035903;28;20683;-59
2022/05/16 04:28:49;;;;;;;4.80;2.38;;;;;;;;;;5035170;28;20599;-57
2022/05/16 04:31:16;;;;;;;4.63;2.00;;;;;;;;;;5020935;28;20249;-59
2022/05/16 04:33:43;;;;;;;3.95;1.83;;;;;;;;;;5028814;28;20267;-57
2022/05/16 04:36:10;;;;;;;7.68;2.00;;;;;;;;;;5035038;28;20679;-55
2022/05/16 04:38:37;;;;;;;3.97;1.73;;;;;;;;;;5064884;28;20729;-58
2022/05/16 04:43:49;;;;;;;7.10;2.05;;;;;;;;;;5055330;28;20220;-58
2022/05/16 04:46:16;;;;;;;7.43;2.30;;;;;;;;;;5055634;28;20243;-58
2022/05/16 04:48:43;;;;;;;6.93;1.90;;;;;;;;;;5028606;28;20229;-60
2022/05/16 04:51:11;;;;;;;6.18;1.90;;;;;;;;;;5014047;28;20707;-57
2022/05/16 04:53:38;;;;;;;6.18;2.30;;;;;;;;;;5014312;28;20295;-57
2022/05/16 04:56:05;;;;;;;8.82;2.20;;;;;;;;;;5014213;28;20237;-58
2022/05/16 04:58:33;;;;;;;3.45;1.83;;;;;;;;;;5015210;28;20264;-50
2022/05/16 05:01:01;;;;;;;6.95;2.08;;;;;;;;;;5015400;28;20233;-57
2022/05/16 05:03:29;;;;;;;5.35;2.10;;;;;;;;;;5015090;28;20240;-57
2022/05/16 05:05:56;;;;;;;5.93;2.13;;;;;;;;;;5014465;28;20233;-55
2022/05/16 05:08:23;;;;;;;7.18;2.25;;;;;;;;;;5043528;28;20312;-59
2022/05/16 05:16:23;;;;;;;3.90;1.98;;;;;;;;;;5054390;28;20231;-57
2022/05/16 05:18:51;;;;;;;5.82;2.08;;;;;;;;;;5053625;28;20250;-54
2022/05/16 05:21:18;;;;;;;6.88;2.20;;;;;;;;;;5054008;28;20761;-57
2022/05/16 05:23:45;;;;;;;8.77;2.13;;;;;;;;;;5054570;28;20228;-57
2022/05/16 05:26:13;;;;;;;7.82;2.42;;;;;;;;;;5054921;28;20224;-56
2022/05/16 05:28:41;;;;;;;4.07;1.63;;;;;;;;;;5054556;28;20266;-56
2022/05/16 05:31:12;;;;;;;3.28;1.75;;;;;;;;;;5054480;28;20266;-57
2022/05/16 05:33:40;;;;;;;4.65;1.80;;;;;;;;;;5053450;28;20235;-57
2022/05/16 05:36:08;;;;;;;3.50;1.63;;;;;;;;;;5054623;28;20231;-57
2022/05/16 05:38:36;;;;;;;4.85;1.90;;;;;;;;;;5053761;28;20240;-57
2022/05/16 05:41:08;;;;;;;6.47;1.95;;;;;;;;;;5055152;28;20216;-58
2022/05/16 05:43:36;;;;;;;7.00;1.90;;;;;;;;;;5055137;28;20661;-57
2022/05/16 05:46:04;;;;;;;3.80;1.55;;;;;;;;;;5054958;28;20196;-58
2022/05/16 05:48:31;;;;;;;4.55;1.90;;;;;;;;;;5055213;28;20270;-57
2022/05/16 05:50:58;;;;;;;4.47;2.08;;;;;;;;;;5054814;28;20196;-58
2022/05/16 05:53:25;;;;;;;6.30;1.85;;;;;;;;;;5054845;28;20635;-58
2022/05/16 05:55:53;;;;;;;4.55;2.03;;;;;;;;;;5054970;28;20200;-57
2022/05/16 05:58:21;;;;;;;6.90;1.92;;;;;;;;;;5054905;28;20228;-58
2022/05/16 06:00:48;;;;;;;5.70;1.75;;;;;;;;;;5054555;28;20283;-57
2022/05/16 06:03:15;;;;;;;8.15;2.03;;;;;;;;;;5055584;28;20199;-57
2022/05/16 06:05:44;;;;;;;7.13;2.20;;;;;;;;;;5054774;28;20287;-58
2022/05/16 06:08:11;;;;;;;5.93;2.00;;;;;;;;;;5055087;28;20211;-57
2022/05/16 06:10:39;;;;;;;4.80;1.77;;;;;;;;;;5054541;28;20200;-57
2022/05/16 06:13:06;;;;;;;4.55;1.50;;;;;;;;;;5054881;28;20203;-58
2022/05/16 06:15:33;;;;;;;6.65;2.08;;;;;;;;;;5053766;28;20227;-58
2022/05/16 06:18:00;;;;;;;4.35;1.50;;;;;;;;;;5054695;28;20542;-58
2022/05/16 06:20:27;;;;;;;5.60;1.70;;;;;;;;;;5054702;28;20204;-58
2022/05/16 06:22:54;;;;;;;5.75;1.83;;;;;;;;;;5054838;28;20211;-57
2022/05/16 06:25:31;;;;;;;7.15;1.88;;;;;;;;;;5054743;28;20204;-58
2022/05/16 06:28:03;;;;;;;9.20;2.28;;;;;;;;;;5055202;28;20215;-57
2022/05/16 06:30:32;;;;;;;8.07;1.90;;;;;;;;;;5054811;28;20189;-58
2022/05/16 06:32:59;;;;;;;5.60;1.67;;;;;;;;;;5054724;28;20199;-58
2022/05/16 06:35:26;;;;;;;4.00;1.65;;;;;;;;;;5054381;28;20200;-57
2022/05/16 06:37:53;;;;;;;7.82;2.00;;;;;;;;;;5054578;28;20229;-58
2022/05/16 06:40:21;;;;;;;5.60;1.67;;;;;;;;;;5054466;28;20273;-58
2022/05/16 06:42:48;;;;;;;3.28;1.30;;;;;;;;;;5054540;28;20638;-58
2022/05/16 06:45:15;;;;;;;3.58;1.30;;;;;;;;;;5054444;28;20270;-57
2022/05/16 06:47:43;;;;;;;3.78;1.35;;;;;;;;;;5054487;28;20207;-58
2022/05/16 06:50:10;;;;;;;2.35;0.98;;;;;;;;;;5054233;28;20609;-58
2022/05/16 06:52:38;;;;;;;6.10;1.60;;;;;;;;;;5054522;28;20544;-56
2022/05/16 06:55:05;;;;;;;3.70;1.30;;;;;;;;;;5054378;28;20212;-58
2022/05/16 06:57:33;;;;;;;7.80;1.50;;;;;;;;;;5053544;28;20310;-58
2022/05/16 07:00:00;;;;;;;4.70;1.42;;;;;;;;;;5054042;28;20627;-58
2022/05/16 07:02:27;;;;;;;3.63;1.30;;;;;;;;;;5054064;28;20507;-58
2022/05/16 07:04:54;;;;;;;5.13;1.60;;;;;;;;;;5054294;28;20204;-58
2022/05/16 07:07:22;;;;;;;3.83;1.42;;;;;;;;;;5053161;28;20196;-57
2022/05/16 07:09:49;;;;;;;2.97;1.10;;;;;;;;;;5053970;28;20219;-57
2022/05/16 07:12:15;;;;;;;3.80;0.93;;;;;;;;;;5054296;28;20265;-57
2022/05/16 07:14:43;;;;;;;2.53;1.30;;;;;;;;;;5054328;28;20585;-57
2022/05/16 07:17:09;;;;;;;2.25;0.90;;;;;;;;;;5054162;28;20496;-57
2022/05/16 07:19:37;;;;;;;6.30;1.83;;;;;;;;;;5054037;28;20319;-57
2022/05/16 07:22:14;;;;;;;6.68;1.25;;;;;;;;;;5053843;28;20200;-57
2022/05/16 07:24:45;;;;;;;3.33;1.15;;;;;;;;;;5054246;28;20204;-56
2022/05/16 07:29:58;;;;;;;2.45;0.90;;;;;;;;;;5057732;28;20264;-58
2022/05/16 07:32:45;;;;;;;7.72;1.60;;;;;;;;;;5057373;28;20211;-57
2022/05/16 07:35:17;;;;;;;3.20;1.15;;;;;;;;;;5056522;28;20560;-58
2022/05/16 07:37:46;;;;;;;8.40;1.52;;;;;;;;;;5057219;28;20615;-57
2022/05/16 07:40:13;;;;;;;1.92;1.10;;;;;;;;;;5057276;28;20196;-57
2022/05/16 07:42:41;;;;;;;2.08;0.88;;;;;;;;;;5057105;28;20652;-58
2022/05/16 07:45:09;;;;;;;3.72;1.30;;;;;;;;;;5057076;28;20219;-57
2022/05/16 07:47:35;;;;;;;2.65;0.95;;;;;;;;;;5057882;28;20287;-57
2022/05/16 07:50:03;;;;;;;2.78;0.90;;;;;;;;;;5057213;28;20224;-58
2022/05/16 07:52:30;;;;;;;5.95;1.35;;;;;;;;;;5057022;28;20242;-57
2022/05/16 07:54:57;;;;;;;4.82;1.05;;;;;;;;;;5057225;28;20215;-58
2022/05/16 07:57:24;;;;;;;3.42;1.10;;;;;;;;;;5057131;28;20227;-58
2022/05/16 07:59:52;;;;;;;3.05;1.08;;;;;;;;;;5057317;28;20228;-58
2022/05/16 08:02:18;;;;;;;2.33;1.10;;;;;;;;;;5056811;28;20215;-57
2022/05/16 08:04:45;;;;;;;2.40;0.90;;;;;;;;;;5056823;28;20204;-57
2022/05/16 08:07:13;;;;;;;4.00;1.02;;;;;;;;;;5056874;28;20200;-57
2022/05/16 08:12:33;;;;;;;7.00;1.13;;;;;;;;;;5056893;28;20196;-57
2022/05/16 08:15:00;;;;;;;3.38;0.90;;;;;;;;;;5056707;28;20631;-57
2022/05/16 08:17:29;;;;;;;2.10;0.80;;;;;;;;;;5056771;28;20246;-58
2022/05/16 08:19:56;;;;;;;4.45;1.00;;;;;;;;;;5056629;28;20228;-58
2022/05/16 08:22:31;;;;;;;2.78;0.80;;;;;;;;;;5056490;28;20200;-57
2022/05/16 08:24:59;;;;;;;2.58;0.77;;;;;;;;;;5056436;28;20642;-57
2022/05/16 08:27:31;;;;;;;7.95;1.35;;;;;;;;;;5056322;28;20254;-58
2022/05/16 08:29:58;;;;;;;3.58;0.90;;;;;;;;;;5038676;28;20269;-58
2022/05/16 08:32:25;;;;;;;2.38;0.93;;;;;;;;;;5056502;28;20530;-58
2022/05/16 08:34:58;;;;;;;2.13;0.73;;;;;;;;;;5056184;28;20235;-58
2022/05/16 08:40:56;;;;;;;1.10;0.80;;;;;;;;;;5014844;28;20208;-58
2022/05/16 08:43:29;;;;;;;6.15;0.90;;;;;;;;;;5055902;28;20212;-58
2022/05/16 08:46:09;;;;;;;4.20;0.90;;;;;;;;;;5056537;28;20532;-58
2022/05/16 08:48:39;;;;;;;5.85;1.10;;;;;;;;;;5055445;28;20223;-57
2022/05/16 08:51:17;;;;;;;2.42;0.80;;;;;;;;;;5054899;28;20215;-57
2022/05/16 08:53:52;;;;;;;4.00;0.90;;;;;;;;;;5055274;28;20199;-58
2022/05/16 08:56:23;;;;;;;2.05;1.00;;;;;;;;;;5055636;28;20214;-58
2022/05/16 08:58:57;;;;;;;1.77;0.70;;;;;;;;;;5055299;28;20223;-58
2022/05/16 09:01:32;;;;;;;4.45;1.00;;;;;;;;;;5055178;28;20208;-58
2022/05/16 09:04:06;;;;;;;3.08;0.90;;;;;;;;;;5054697;28;20203;-58
2022/05/16 09:06:49;;;;;;;3.20;1.00;;;;;;;;;;5055398;28;20188;-57
2022/05/16 09:09:23;;;;;;;2.47;1.00;;;;;;;;;;5054697;28;20200;-58
2022/05/16 09:11:58;;;;;;;2.30;0.77;;;;;;;;;;5054884;28;20200;-58
2022/05/16 09:14:44;;;;;;;3.58;0.80;;;;;;;;;;5055591;28;20262;-57
2022/05/16 09:17:36;;;;;;;1.70;0.63;;;;;;;;;;5055447;28;20615;-58
2022/05/16 09:20:36;;;;;;;3.78;0.80;;;;;;;;;;5054194;28;20220;-57
2022/05/16 09:23:25;;;;;;;2.10;0.60;;;;;;;;;;5034860;28;20204;-57
2022/05/16 09:26:14;;;;;;;0.80;0.50;;;;;;;;;;5054987;28;20230;-57
2022/05/16 09:28:46;;;;;;;8.70;0.88;;;;;;;;;;5055448;28;20211;-58
2022/05/16 09:31:18;;;;;;;3.08;0.70;;;;;;;;;;5054434;28;20341;-57
2022/05/16 09:33:49;;;;;;;1.35;0.50;;;;;;;;;;5054357;28;20577;-57
2022/05/16 09:36:20;;;;;;;2.38;0.63;;;;;;;;;;5055368;28;20214;-58
2022/05/16 09:38:47;;;;;;;2.40;0.73;;;;;;;;;;5055185;28;20219;-58
2022/05/16 09:41:20;;;;;;;0.95;0.60;;;;;;;;;;5054910;28;20230;-58
2022/05/16 09:44:02;;;;;;;3.40;0.50;;;;;;;;;;5055449;28;20214;-58
2022/05/16 09:46:43;;;;;;;3.63;0.73;;;;;;;;;;5055223;28;20204;-58
2022/05/16 09:49:18;;;;;;;1.77;0.63;;;;;;;;;;5055111;28;20211;-58
2022/05/16 09:51:54;;;;;;;3.28;0.77;;;;;;;;;;5054774;28;20231;-57
2022/05/16 09:54:35;;;;;;;2.25;0.57;;;;;;;;;;5055051;28;20218;-57
2022/05/16 09:57:09;;;;;;;1.52;0.80;;;;;;;;;;5055039;28;20661;-57
2022/05/16 09:59:39;;;;;;;1.98;0.73;;;;;;;;;;5054646;28;20258;-58
2022/05/16 10:02:35;;;;;;;1.83;0.88;;;;;;;;;;5054764;28;20550;-58
2022/05/16 10:05:23;;;;;;;3.33;0.70;;;;;;;;;;5055114;28;20208;-58
2022/05/16 10:07:59;;;;;;;3.47;0.77;;;;;;;;;;5055260;28;20589;-58
2022/05/16 10:10:32;;;;;;;1.95;0.90;;;;;;;;;;5054799;28;20207;-57
2022/05/16 10:12:59;;;;;;;1.85;0.80;;;;;;;;;;5055252;28;20203;-57
2022/05/16 10:15:27;;;;;;;1.30;0.68;;;;;;;;;;5054510;28;20639;-58
2022/05/16 10:17:55;;;;;;;3.10;1.13;;;;;;;;;;5054613;28;20671;-58
2022/05/16 10:20:33;;;;;;;2.33;0.90;;;;;;;;;;5039312;28;20220;-58
2022/05/16 10:23:04;;;;;;;4.45;0.65;;;;;;;;;;5034660;28;20546;-58
2022/05/16 10:25:40;;;;;;;5.07;0.80;;;;;;;;;;5034461;28;20676;-58
2022/05/16 10:28:12;;;;;;;2.22;0.80;;;;;;;;;;5033927;28;20220;-58
2022/05/16 10:33:28;;;;;;;6.88;0.82;;;;;;;;;;5034795;28;20223;-57
2022/05/16 10:36:00;;;;;;;1.80;0.93;;;;;;;;;;5034572;28;20213;-58
2022/05/16 10:38:37;;;;;;;1.30;0.60;;;;;;;;;;5034551;28;20197;-57
2022/05/16 10:41:11;;;;;;;3.00;0.90;;;;;;;;;;5034918;28;20208;-57
2022/05/16 10:44:01;;;;;;;1.67;0.70;;;;;;;;;;5034236;28;20207;-58
2022/05/16 10:46:35;;;;;;;1.33;0.65;;;;;;;;;;5034652;28;20584;-58
2022/05/16 10:49:16;;;;;;;1.50;0.50;;;;;;;;;;5035074;28;20223;-56
2022/05/16 10:51:50;;;;;;;5.35;1.25;;;;;;;;;;5038530;28;20558;-56
2022/05/16 10:54:22;;;;;;;1.83;0.55;;;;;;;;;;5046874;28;20247;-56
2022/05/16 10:57:15;;;;;;;1.90;0.60;;;;;;;;;;5044715;28;20687;-56
2022/05/16 10:59:57;;;;;;;1.50;0.50;;;;;;;;;;5044735;28;20224;-55
2022/05/16 11:02:52;;;;;;;2.00;0.60;;;;;;;;;;5047741;28;20228;-55
2022/05/16 11:05:31;;;;;;;0.80;0.45;;;;;;;;;;5039838;28;20238;-57
2022/05/16 11:08:08;;;;;;;3.67;0.70;;;;;;;;;;5017717;28;20225;-58
2022/05/16 11:10:39;;;;;;;1.83;0.60;;;;;;;;;;5017718;28;20308;-56
2022/05/16 11:13:44;;;;;;;3.17;0.70;;;;;;;;;;5017400;28;20303;-55
2022/05/16 11:16:16;;;;;;;1.52;0.60;;;;;;;;;;4986878;28;20224;-57
2022/05/16 11:19:02;;;;;;;1.00;0.50;;;;;;;;;;5017434;28;20236;-56
2022/05/16 11:21:44;;;;;;;1.17;0.70;;;;;;;;;;5016546;28;20229;-58
2022/05/16 11:24:35;;;;;;;1.63;0.45;;;;;;;;;;5016758;28;20316;-57
2022/05/16 11:27:20;;;;;;;2.17;0.57;;;;;;;;;;5017433;28;20229;-56
2022/05/16 11:30:05;;;;;;;1.08;0.50;;;;;;;;;;5017080;28;20248;-57
2022/05/16 11:33:01;;;;;;;4.65;0.63;;;;;;;;;;5016230;28;20229;-57
2022/05/16 11:35:45;;;;;;;1.98;0.82;;;;;;;;;;5017366;28;20225;-58
2022/05/16 11:38:35;;;;;;;4.95;0.80;;;;;;;;;;5056778;28;20235;-58
2022/05/16 11:41:29;;;;;;;1.63;0.63;;;;;;;;;;5037637;28;20213;-59
2022/05/16 11:44:33;;;;;;;1.60;0.57;;;;;;;;;;5035831;28;20208;-58
2022/05/16 11:47:09;;;;;;;1.70;0.60;;;;;;;;;;5034184;28;20244;-59
2022/05/16 11:50:21;;;;;;;3.00;0.50;;;;;;;;;;5036243;28;20299;-57
2022/05/16 11:53:35;;;;;;;1.30;0.50;;;;;;;;;;5033812;28;20224;-58
2022/05/16 12:01:36;;;;;;;0.70;0.52;;;;;;;;;;5035748;28;20263;-57
2022/05/16 12:04:21;;;;;;;1.52;0.43;;;;;;;;;;5035848;28;20663;-57
2022/05/16 12:06:58;;;;;;;3.75;0.65;;;;;;;;;;5035138;28;20189;-57
2022/05/16 12:09:31;;;;;;;1.08;0.52;;;;;;;;;;5036669;28;20547;-58
2022/05/16 12:12:10;;;;;;;1.67;0.73;;;;;;;;;;5037314;28;20201;-58
2022/05/16 12:14:39;;;;;;;1.23;0.63;;;;;;;;;;5036086;28;20671;-57
2022/05/16 12:17:18;;;;;;;2.85;0.60;;;;;;;;;;5036566;28;20212;-57
2022/05/16 12:19:56;;;;;;;1.65;0.60;;;;;;;;;;5036705;28;20307;-57
2022/05/16 12:22:31;;;;;;;1.85;0.60;;;;;;;;;;5020244;28;20245;-58
2022/05/16 12:25:08;;;;;;;1.52;0.52;;;;;;;;;;5051243;28;20215;-55
2022/05/16 12:27:42;;;;;;;2.30;0.70;;;;;;;;;;5042778;28;20685;-57
2022/05/16 12:30:20;;;;;;;1.85;0.65;;;;;;;;;;5043494;28;20244;-57
2022/05/16 12:32:54;;;;;;;2.28;0.60;;;;;;;;;;5034893;28;20228;-58
2022/05/16 12:35:42;;;;;;;2.97;0.77;;;;;;;;;;5042554;28;20694;-58
2022/05/16 12:38:11;;;;;;;7.65;0.60;;;;;;;;;;5039061;28;20251;-60
2022/05/16 12:44:30;;;;;;;1.30;0.65;;;;;;;;;;5032286;28;20228;-59
2022/05/16 12:47:09;;;;;;;3.40;0.60;;;;;;;;;;5064194;28;20279;-60
2022/05/16 12:49:55;;;;;;;1.55;0.50;;;;;;;;;;5039508;28;20616;-58
2022/05/16 12:52:36;;;;;;;2.00;0.57;;;;;;;;;;5032220;28;20236;-60
2022/05/16 12:55:25;;;;;;;4.85;0.70;;;;;;;;;;5035518;28;20235;-59
2022/05/16 12:58:16;;;;;;;3.38;0.70;;;;;;;;;;5035901;28;20730;-59
2022/05/16 13:00:56;;;;;;;3.08;0.70;;;;;;;;;;5030772;28;20274;-59
2022/05/16 13:03:29;;;;;;;3.75;0.60;;;;;;;;;;5033750;28;20687;-60
2022/05/16 13:06:02;;;;;;;2.58;0.50;;;;;;;;;;5033618;28;20556;-59
2022/05/16 13:08:57;;;;;;;2.38;0.50;;;;;;;;;;5032372;28;20556;-58
2022/05/16 13:11:46;;;;;;;2.78;0.70;;;;;;;;;;5032574;28;20220;-57
2022/05/16 13:14:20;;;;;;;1.42;0.57;;;;;;;;;;5031724;28;20308;-59
2022/05/16 13:16:53;;;;;;;1.83;0.50;;;;;;;;;;5030939;28;20243;-56
2022/05/16 13:19:24;;;;;;;1.90;0.60;;;;;;;;;;5033461;28;20229;-58
2022/05/16 13:22:06;;;;;;;1.55;0.50;;;;;;;;;;5031440;28;20228;-56
2022/05/16 13:24:33;;;;;;;0.85;0.50;;;;;;;;;;5030703;28;20231;-58
2022/05/16 13:30:05;;;;;;;0.98;0.60;;;;;;;;;;5032900;28;20303;-59
2022/05/16 13:32:32;;;;;;;0.80;0.50;;;;;;;;;;5032787;28;20605;-59
2022/05/16 13:35:07;;;;;;;0.90;0.50;;;;;;;;;;5032336;28;20224;-58
2022/05/16 13:37:56;;;;;;;2.55;0.70;;;;;;;;;;5032025;28;20220;-60
2022/05/16 13:40:32;;;;;;;2.58;0.60;;;;;;;;;;5033441;28;20233;-58
2022/05/16 13:43:00;;;;;;;4.68;0.70;;;;;;;;;;5025104;28;20233;-59
2022/05/16 13:45:32;;;;;;;1.80;0.40;;;;;;;;;;5014838;28;20726;-59
2022/05/16 13:48:07;;;;;;;1.77;0.52;;;;;;;;;;5014286;28;20228;-59
2022/05/16 13:50:37;;;;;;;2.03;0.60;;;;;;;;;;5014867;28;20224;-59
2022/05/16 13:53:06;;;;;;;1.33;0.60;;;;;;;;;;5014869;28;20303;-59
